LIBDLIPY

Guest
Details From LIBD - Bari Palese Macchie
To LIPY - FALCONARA
Flight Number -
Tags generated
Created
Modified
Stats Distance 212 nm / 393 km
Max Altitude 22,600 ft / 6,888 m
Waypoints 3
Social Downloads 0
Likes 0
Share VATSIM

Download

Looking for another format? Having issues loading an existing format? Contact us
Advertisement - Login to hide

Notes

Basic altitude profile: - Ascent Rate: 2500ft/min - Ascent Speed: 250kts - Cruise Altitude: 35000ft - Cruise Speed: 420kts - Descent Rate: 1500ft/min - Descent Speed: 250kts Options: - Use NATs: yes - Use PACOTS: yes - Use low airways: yes - Use high airways: yes

Route

LIBD POLYP LIPY

ID Type Via Altitude Latitude Longitude Leg Dist Tot Dist Heading (true) Name
O LIBD APT - 0 ft / 0 m 41.13787˚ 16.75832˚ - 0 nm - Bari Palese Macchie
POLYP FIX - 22,600 ft / 6,888 m 42.47833˚ 15.20250˚ 106 nm 106 nm 320° / 319° -
O LIPY APT - 0 ft / 0 m 43.61635˚ 13.36231˚ 105 nm 212 nm 311° / 310° FALCONARA

Altitude Profile

Advertisement - Login to hide

Weather


0- 5 10 15 20 25 30 35+ Temperature / ° C

Clouds and Precipitation
Forecast for 2018-05-25 12:00 UTC. Updated 6 hours ago

Ground ~20,000 ft ~40,000 ft Winds

LIBD

Details ICAO LIBD (BRI)
Name Bari Palese Macchie
Region Italy
Timezone Europe/Rome (UTC+2.0)
Stats Elevation 177 ft / 54 m (AMSL)
Location 41.137865° 16.758318°
Runways 1
Magnetic Variation 3.783° E

METAR

LIBD 251620Z 03007KT 330V060 CAVOK 23/16 Q1014

Decode

TAF

TAF LIBD 251100Z 2512/2612 03012KT 9999 FEW030 BECMG 2517/2519 28008KT BECMG 2608/2610 02012KT

Decode

Departure Runways

ID Width Length Bearing (true) Bearing (mag) Surface Threshold Offset Overrun Length
07 148 ft / 45 m 9,262 ft / 2,823 m 69.39° 65.61° Asphalt 1,257 ft / 383 m 0 ft / 0 m
25 148 ft / 45 m 9,262 ft / 2,823 m 249.42° 245.64° Asphalt 0 ft / 0 m 194 ft / 59 m

LIPY

Details ICAO LIPY (AOI)
Name FALCONARA
Region Italy
Timezone Europe/Rome (UTC+2.0)
Stats Elevation 49 ft / 15 m (AMSL)
Location 43.616351° 13.362310°
Runways 1
Magnetic Variation 3.342° E

METAR

LIPY 251550Z 34005KT 300V020 CAVOK 25/16 Q1014

Decode

TAF

TAF LIPY 251100Z 2512/2612 34010KT CAVOK BECMG 2516/2518 VRB05KT BECMG 2610/2612 34010KT

Decode

Destination Runways

ID Width Length Bearing (true) Bearing (mag) Surface Threshold Offset Overrun Length
04 148 ft / 45 m 9,711 ft / 2,960 m 44.81° 41.47° Asphalt 641 ft / 195 m 0 ft / 0 m
22 148 ft / 45 m 9,711 ft / 2,960 m 224.83° 221.49° Asphalt 492 ft / 150 m 0 ft / 0 m

Approach Navaids

Runway Type Ident Frequency Range Bearing (true) Bearing (mag) Slope Elevation
22 Localiser IFA 111.90 MHz 18 nm / 33 km 224.79° 221.45° - 47 ft / 14 m (AMSL)
22 Glidescope IFA 111.90 MHz 10 nm / 19 km 224.82° 221.48° 3.50° 34 ft / 10 m (AMSL)
22 DME IFA 111.90 MHz 18 nm / 33 km - - - 50 ft / 15 m (AMSL)

Popular Alternatives